Bauang Weathercam more information Bauang Weathercam


Rain radar more information rain snow radar


Visit other webcamsites:

Youtube



Nearby METAR Reports

   
RPLC - Angeles/Pampanga, Philippines
Distance from station: S 165 km
Updated: 18-08-2022 07:00
Haze, Overcast  
Haze, Overcast  
   Wind: South 2.1 m/s
Wind: South 2.1 m/s
Temperature: 25°C
Dew Point: 24°C
Humidity: 94%
Barometer: 1009 hPa
Clouds: Overcast
Visibility: 3 km
Cloud details: Partly Cloudy 609.6 m,
Overcast 3048 m
RPLC 172300Z 18004KT 3000 HZ SCT020 OVC100 25/24 Q1009 RMK A2980
RPLI - Laoag Intl(Ph-Ar, Philippines
Distance from station: N 172 km
Updated: 18-08-2022 07:00
Nearby Showers, Mostly Cloudy  
Nearby Showers, Mostly Cloudy  
   Wind: South 2.1 m/s
Wind: South 2.1 m/s
Temperature: 26°C
Dew Point: 24°C
Humidity: 89%
Barometer: 1007 hPa
Clouds: Mostly Cloudy
Visibility: 8 km
Cloud details: Partly Cloudy 548.6 m,
Mostly Cloudy 2743.2 m
RPLI 172300Z 17004KT 8000 VCSH SCT018 BKN090 26/24 Q1007 NOSIG RMK A2974 VCSH S
RPLB - Olongapo/Subic, Philippines
Distance from station: S 203 km
Updated: 18-08-2022 07:00
Light Rain, Overcast  
Light Rain, Overcast  
   Wind: SSE 3.6 m/s
Wind: SSE 3.6 m/s
Temperature: 25°C
Dew Point: 23°C
Humidity: 89%
Barometer: 1009 hPa
Clouds: Overcast
Visibility: 9 km
Cloud details: Mostly Cloudy 548.6 m,
Overcast 2133.6 m
RPLB 172300Z 16007KT 9000 -RA BKN018 OVC070 25/23 Q1009 RMK A2980
RPLL - Ninoy Aquino Int, Philippines
Distance from station: SSE 246 km
Updated: 18-08-2022 07:00
Mostly Cloudy  
Mostly Cloudy  
   Wind: South 1.5 m/s
Wind: South 1.5 m/s
Temperature: 29°C
Heat Index: 33°C
Dew Point: 24°C
Humidity: 74%
Barometer: 1009 hPa
Clouds: Mostly Cloudy
Visibility: More than 10 km
Cloud details: Few Clouds 762 m,
Mostly Cloudy 3048 m
RPLL 172300Z 18003KT 150V220 9999 FEW025 BKN100 29/24 Q1009 NOSIG RMK A2980
RPMR - Romblon/Tablas I, Philippines
Distance from station: SSE 498 km
Updated: 17-08-2022 16:00
NOT Current
Partly Cloudy  
Partly Cloudy  
   Wind: SSE 4.6 m/s
Wind: SSE 4.6 m/s
Temperature: 30°C
Heat Index: 49°C
Dew Point: 32°C
Humidity: 112%
Barometer: 1009 hPa
Clouds: Partly Cloudy
Visibility: More than 10 km
Cloud details: Few Clouds 548.6 m,
Partly Cloudy 2438.4 m
RPMR 170800Z 15009KT 9999 FEW018 SCT080 30/32 Q1009 RMK A2980
RPVP - Puerto Princesa, Philippines
Distance from station: SSW 778 km
Updated: 18-08-2022 07:00
Partly Cloudy  
Partly Cloudy  
   Wind: WSW 1 m/s
Wind: WSW 1 m/s
Temperature: 26°C
Dew Point: 23°C
Humidity: 84%
Barometer: 1010 hPa
Clouds: Partly Cloudy
Visibility: More than 10 km
Cloud details: Few Clouds 579.1 m,
Partly Cloudy 7315.2 m
RPVP 172300Z 24002KT 9999 FEW019 SCT240 26/23 Q1010 RMK A2983
RPVM - Mactan-Cebu, Philippines
Distance from station: SSE 800 km
Updated: 18-08-2022 07:00
Mostly Cloudy  
Mostly Cloudy  
   Wind: WNW 1.5 m/s
Wind: WNW 1.5 m/s
Temperature: 25°C
Dew Point: 23°C
Humidity: 89%
Barometer: 1010 hPa
Clouds: Mostly Cloudy
Visibility: More than 10 km
Cloud details: Few Clouds 609.6 m,
Mostly Cloudy 3048 m
RPVM 172300Z 29003KT 230V310 9999 FEW020 BKN100 25/23 Q1010 RMK A2983
RPMZ - Zamboanga (civ/A, Philippines
Distance from station: S 1090 km
Updated: 18-08-2022 07:00
Overcast  
Overcast  
   Wind: varies 1 m/s
Wind: varies 1 m/s
Temperature: 26°C
Dew Point: 24°C
Humidity: 89%
Barometer: 1010 hPa
Clouds: Overcast
Visibility: More than 10 km
Cloud details: Few Clouds 518.2 m,
Overcast 2743.2 m
RPMZ 172300Z VRB02KT 9999 FEW017 OVC090 26/24 Q1010 RMK A2983
RPMD - Davao/Francisco, Philippines
Distance from station: SSE 1198 km
Updated: 18-08-2022 07:00
Light Rain, Overcast  
Light Rain, Overcast  
   Wind: varies 0.5 m/s
Wind: varies 0.5 m/s
Temperature: 24°C
Dew Point: 24°C
Humidity: 100%
Barometer: 1011 hPa
Clouds: Overcast
Visibility: 8 km
Cloud details: Few Clouds 457.2 m,
Overcast 2743.2 m
RPMD 172300Z VRB01KT 8000 -RA FEW015 OVC090 24/24 Q1011 RMK A2985

Script developed by  Saratoga-weather.org Adapted for the template by  Weerstation Leuven

You find our weather info also at:

Ambient Weather

WeatherCloud

Philippine Atmospheric, Geophysical and Astronomical Services Administration